Terminal Aerodrome Forecast
Issued by NWS

Home | Current Version | Previous Version | Text Only | Print | Product List | Glossary On
Versions: 1 2 3 4 5 6 7 8 9 10 11 12 13 14 15
118
FTUS44 KEWX 232340
TAFSSF
TAF
KSSF 232340Z 2400/2424 14006KT P6SM SCT070 SCT250
     FM241000 15004KT P6SM BKN015
     FM241500 16007KT P6SM FEW040 SCT250
     FM242200 13010KT P6SM SCT060 SCT250=

USA.gov is the U.S. government's official web portal to all federal, state and local government web resources and services.